Hlavní strana
METAR-TAF:

METAR-TAF

Letiště :

Ivalo, Finsko

zeměpisná šířka: 68-37N, zeměpisná délka: 027-25E, výška: 147 m

Aktuální stav počasí

Zpráva byla vytvořena před 37 minutami, v 13:50 UTC
Západní vítr 7 kt
Teplota 2°C
Vlhkost vzduchu 93%
Tlak 1010 hPa
Viditelnost 10 km a více
Zataženo ve výšce 600 ft

METAR: EFIV 191350Z AUTO 28007KT 9999 OVC006 02/01 Q1010

Čas: 17:27 (14:27 UTC)

Předpověď počasí

Zpráva byla vytvořena před 3 hodinami a 3 minutami, v 11:24 UTC
Předpověď platná od 19 v 12 UTC do 19 v 16 UTC
Západoseverozápadní vítr 3 kt
Viditelnost 10 km a více
Oblačno až skoro zataženo ve výšce 500 ft
Dočasný
od 19 v 12 UTC do 19 v 16 UTC
Viditelnost: 3000 m
Oblačno až skoro zataženo ve výšce 300 ft
kouřmo

TAF: EFIV 191124Z 1912/1916 30003KT 9999 BKN005 TEMPO 1912/1916 3000 BR BKN003

Stav a předpovědi počasí z více než 4 000 letišť (zprávy METAR a TAF).

Červené a žluté tečky na mapě představují dostupné meteorologické stanice.

Když kurzor umístíte na tečku, zobrazí se název stanice.

Pak kliknutím zobrazíte stav a předpověď počasí.

Chcete-li změnit mapu, kliknutím na zelené tlačítko se znaménkem +mapu přiblížíte, kliknutím na zelené tlačítko se znaménkem – mapu oddálíte a kliknutím na zelené šipky přejdete na sousední mapy.


METAR-TAF: